Time;durP1;ratioP1;P1;durP2;ratioP2;P2;SDS_P1;SDS_P2;PMS_P1;PMS_P2;Temp;Humidity;BMP_temperature;BMP_pressure;BME280_temperature;BME280_humidity;BME280_pressure;Samples;Min_cycle;Max_cycle;Signal;HPM_P1;HPM_P2
2022/01/13 00:01:52;;;;;;;0.50;0.10;;;4.10;1.00;;;;;;5075778;28;20499;-76
2022/01/13 00:04:21;;;;;;;1.63;1.20;;;4.10;1.00;;;;;;5073030;28;20476;-77
2022/01/13 00:06:49;;;;;;;0.50;0.10;;;4.10;1.00;;;;;;5081021;28;20441;-77
2022/01/13 00:09:17;;;;;;;0.50;0.10;;;4.10;1.00;;;;;;5077784;28;20429;-77
2022/01/13 00:11:46;;;;;;;0.50;0.10;;;4.10;1.00;;;;;;5072473;28;20449;-77
2022/01/13 00:14:42;;;;;;;0.60;0.30;;;4.00;1.00;;;;;;5071873;28;20490;-76
2022/01/13 00:17:24;;;;;;;0.50;0.10;;;4.10;1.00;;;;;;5072048;28;20442;-76
2022/01/13 00:20:31;;;;;;;0.50;0.10;;;4.00;1.00;;;;;;5061437;28;20444;-78
2022/01/13 00:25:56;;;;;;;0.50;0.10;;;4.10;1.00;;;;;;5054242;28;20429;-77
2022/01/13 00:28:25;;;;;;;5.53;1.07;;;4.10;1.00;;;;;;5052817;28;20456;-76
2022/01/13 00:30:56;;;;;;;0.50;0.10;;;4.10;1.00;;;;;;5045995;28;20858;-76
2022/01/13 00:33:26;;;;;;;0.50;0.10;;;4.10;1.00;;;;;;5038279;28;20501;-77
2022/01/13 00:35:57;;;;;;;0.50;0.20;;;4.10;1.00;;;;;;5052464;28;20437;-75
2022/01/13 00:38:25;;;;;;;0.50;0.10;;;4.20;1.00;;;;;;5051548;28;20434;-76
2022/01/13 00:40:54;;;;;;;2.93;2.83;;;4.20;1.00;;;;;;5051829;28;20798;-76
2022/01/13 00:43:22;;;;;;;0.50;0.10;;;4.20;1.00;;;;;;5051623;28;20471;-76
2022/01/13 00:45:50;;;;;;;0.67;0.67;;;4.20;1.00;;;;;;5051449;28;20447;-77
2022/01/13 00:48:19;;;;;;;0.50;0.10;;;4.20;1.00;;;;;;5051917;28;20531;-78
2022/01/13 00:50:48;;;;;;;0.50;0.10;;;4.10;1.00;;;;;;5056325;28;20463;-77
2022/01/13 00:53:16;;;;;;;0.50;0.10;;;4.10;1.00;;;;;;5053813;28;20854;-76
2022/01/13 00:55:48;;;;;;;0.50;0.10;;;4.20;1.00;;;;;;5051896;28;20488;-76
2022/01/13 00:58:17;;;;;;;0.50;0.10;;;4.20;1.00;;;;;;5051822;28;20858;-76
2022/01/13 01:00:46;;;;;;;0.50;0.10;;;4.30;1.00;;;;;;5051726;28;20884;-78
2022/01/13 01:03:14;;;;;;;0.50;0.10;;;4.30;1.00;;;;;;5055714;28;20458;-76
2022/01/13 01:05:44;;;;;;;0.50;0.10;;;4.30;1.00;;;;;;5055679;28;20905;-76
2022/01/13 01:08:12;;;;;;;0.50;0.10;;;4.30;1.00;;;;;;5056005;28;20839;-76
2022/01/13 01:10:47;;;;;;;0.50;0.10;;;4.30;1.00;;;;;;5056261;28;20790;-75
2022/01/13 01:13:18;;;;;;;0.50;0.10;;;4.30;1.00;;;;;;5059358;28;20525;-78
2022/01/13 01:15:51;;;;;;;0.50;0.10;;;4.30;1.00;;;;;;5064394;28;20471;-77
2022/01/13 01:18:29;;;;;;;0.50;0.10;;;4.30;1.00;;;;;;5059536;28;20420;-78
2022/01/13 01:21:33;;;;;;;0.50;0.13;;;4.30;1.00;;;;;;5086033;28;20459;-78
2022/01/13 01:24:26;;;;;;;0.50;0.10;;;4.30;1.00;;;;;;5079053;28;20549;-77
2022/01/13 01:26:57;;;;;;;0.50;0.10;;;4.30;1.00;;;;;;5076371;28;20429;-77
2022/01/13 01:29:29;;;;;;;0.50;0.10;;;4.40;1.00;;;;;;5068728;28;21145;-77
2022/01/13 01:31:58;;;;;;;0.87;0.80;;;4.30;1.00;;;;;;5055230;28;20429;-76
2022/01/13 01:34:44;;;;;;;0.50;0.10;;;4.30;1.00;;;;;;5054765;28;20573;-76
2022/01/13 01:37:16;;;;;;;0.50;0.10;;;4.40;1.00;;;;;;5055810;28;20489;-77
2022/01/13 01:39:46;;;;;;;0.50;0.10;;;4.40;1.00;;;;;;5057944;28;20455;-76
2022/01/13 01:42:15;;;;;;;0.50;0.17;;;4.40;1.00;;;;;;5054828;28;20504;-78
2022/01/13 01:44:45;;;;;;;0.50;0.10;;;4.40;1.00;;;;;;5054576;28;20555;-76
2022/01/13 01:47:16;;;;;;;0.50;0.10;;;4.40;1.00;;;;;;5054844;28;20540;-76
2022/01/13 01:49:46;;;;;;;0.50;0.10;;;4.40;1.00;;;;;;5054826;28;20442;-76
2022/01/13 01:52:18;;;;;;;0.50;0.10;;;4.40;1.00;;;;;;5054987;28;20459;-77
2022/01/13 01:54:47;;;;;;;0.50;0.10;;;4.30;1.00;;;;;;5055180;28;20484;-76
2022/01/13 01:57:17;;;;;;;0.50;0.10;;;4.30;1.00;;;;;;5061066;28;20430;-76
2022/01/13 01:59:45;;;;;;;0.50;0.10;;;4.30;1.00;;;;;;5059828;28;20448;-76
2022/01/13 02:02:15;;;;;;;0.50;0.10;;;4.40;1.00;;;;;;5056257;28;20519;-77
2022/01/13 02:04:44;;;;;;;0.50;0.10;;;4.40;1.00;;;;;;5055796;28;20464;-76
2022/01/13 02:07:13;;;;;;;0.50;0.10;;;4.40;1.00;;;;;;5054516;28;20463;-77
2022/01/13 02:09:48;;;;;;;0.50;0.10;;;4.40;1.00;;;;;;5054206;28;20456;-77
2022/01/13 02:12:30;;;;;;;0.50;0.10;;;4.40;1.00;;;;;;5054551;28;20431;-76
2022/01/13 02:15:04;;;;;;;0.50;0.10;;;4.40;1.00;;;;;;5053726;28;20506;-78
2022/01/13 02:17:34;;;;;;;0.50;0.10;;;4.40;1.00;;;;;;5054462;28;20432;-77
2022/01/13 02:20:04;;;;;;;0.50;0.10;;;4.40;1.00;;;;;;5061644;28;20456;-77
2022/01/13 02:22:34;;;;;;;0.50;0.10;;;4.40;1.00;;;;;;5074124;28;20439;-77
2022/01/13 02:25:03;;;;;;;0.50;0.10;;;4.40;1.00;;;;;;5074176;28;20427;-77
2022/01/13 02:27:30;;;;;;;0.50;0.10;;;4.40;1.00;;;;;;5073898;28;20440;-76
2022/01/13 02:29:58;;;;;;;0.50;0.10;;;4.50;1.00;;;;;;5072082;28;20431;-77
2022/01/13 02:32:26;;;;;;;0.50;0.10;;;4.50;1.00;;;;;;5034469;28;20930;-77
2022/01/13 02:34:54;;;;;;;0.50;0.10;;;4.50;1.00;;;;;;5052269;28;20517;-77
2022/01/13 02:37:22;;;;;;;0.50;0.10;;;4.50;1.00;;;;;;5046146;28;20451;-77
2022/01/13 02:39:51;;;;;;;0.50;0.10;;;4.50;1.00;;;;;;5052469;28;20936;-77
2022/01/13 02:42:19;;;;;;;0.50;0.10;;;4.50;1.00;;;;;;5075408;28;20419;-75
2022/01/13 02:44:59;;;;;;;0.50;0.10;;;4.40;1.00;;;;;;5079635;28;20476;-76
2022/01/13 02:47:58;;;;;;;0.50;0.10;;;4.40;1.00;;;;;;5075936;28;20450;-76
2022/01/13 02:50:25;;;;;;;0.50;0.10;;;4.40;1.00;;;;;;5062084;28;20554;-78
2022/01/13 02:52:53;;;;;;;0.50;0.10;;;4.50;1.00;;;;;;5054406;28;20476;-77
2022/01/13 02:55:24;;;;;;;2.93;2.30;;;4.50;1.00;;;;;;5053560;28;20484;-76
2022/01/13 02:57:52;;;;;;;8.87;5.93;;;4.50;1.00;;;;;;5059065;28;20426;-79
2022/01/13 03:00:20;;;;;;;0.50;0.10;;;4.50;1.00;;;;;;5066535;28;20436;-76
2022/01/13 03:02:48;;;;;;;0.50;0.10;;;4.50;1.00;;;;;;5073521;28;20458;-76
2022/01/13 03:05:16;;;;;;;0.50;0.10;;;4.50;1.00;;;;;;5052820;28;20442;-77
2022/01/13 03:07:44;;;;;;;0.50;0.10;;;4.50;1.00;;;;;;5053315;28;20486;-77
2022/01/13 03:10:13;;;;;;;3.50;3.30;;;4.50;1.00;;;;;;5052739;28;20841;-77
2022/01/13 03:12:45;;;;;;;0.50;0.13;;;4.60;1.00;;;;;;5052988;28;20483;-76
2022/01/13 03:15:13;;;;;;;0.50;0.10;;;4.60;1.00;;;;;;5071628;28;20474;-77
2022/01/13 03:17:41;;;;;;;4.50;4.10;;;4.50;1.00;;;;;;5072992;28;20476;-77
2022/01/13 03:20:09;;;;;;;0.50;0.10;;;4.50;1.00;;;;;;5073208;28;20527;-77
2022/01/13 03:22:37;;;;;;;0.50;0.10;;;4.50;1.00;;;;;;5077010;28;20444;-76
2022/01/13 03:25:06;;;;;;;0.50;0.10;;;4.50;1.00;;;;;;5063240;28;20454;-77
2022/01/13 03:27:35;;;;;;;0.50;0.10;;;4.40;1.00;;;;;;5055214;28;20459;-77
2022/01/13 03:30:07;;;;;;;0.50;0.10;;;4.40;1.00;;;;;;5052871;28;20460;-79
2022/01/13 03:32:36;;;;;;;0.50;0.10;;;4.50;1.00;;;;;;5061069;28;20974;-76
2022/01/13 03:35:06;;;;;;;0.50;0.10;;;4.40;1.00;;;;;;5069860;28;20423;-78
2022/01/13 03:37:34;;;;;;;0.50;0.10;;;4.40;1.00;;;;;;5073595;28;20431;-77
2022/01/13 03:40:03;;;;;;;0.50;0.10;;;4.40;1.00;;;;;;5062477;28;20448;-78
2022/01/13 03:42:31;;;;;;;0.50;0.10;;;4.40;1.00;;;;;;5058855;28;20446;-77
2022/01/13 03:45:00;;;;;;;0.50;0.10;;;4.50;1.00;;;;;;5094559;23;20832;-80
2022/01/13 03:47:29;;;;;;;0.50;0.10;;;4.60;1.00;;;;;;5078885;28;20436;-79
2022/01/13 03:49:57;;;;;;;0.50;0.10;;;4.60;1.00;;;;;;5079191;28;20442;-79
2022/01/13 03:52:40;;;;;;;0.50;0.10;;;;;;;;;;5080001;28;20435;-79
2022/01/13 03:55:45;;;;;;;0.50;0.10;;;4.50;1.00;;;;;;5078513;28;20480;-79
2022/01/13 03:58:51;;;;;;;0.50;0.10;;;4.50;1.00;;;;;;5078985;28;20495;-80
2022/01/13 04:01:52;;;;;;;0.50;0.10;;;4.40;1.00;;;;;;5079143;28;20455;-81
2022/01/13 04:04:21;;;;;;;3.43;2.23;;;4.40;1.00;;;;;;5070780;28;20467;-78
2022/01/13 04:06:49;;;;;;;0.50;0.20;;;4.30;1.00;;;;;;5059603;28;20448;-80
2022/01/13 04:09:46;;;;;;;0.60;0.30;;;4.20;1.00;;;;;;5059949;28;20894;-80
2022/01/13 04:12:15;;;;;;;0.50;0.10;;;4.20;1.00;;;;;;5058621;28;20440;-81
2022/01/13 04:14:59;;;;;;;0.50;0.10;;;4.10;1.00;;;;;;5074881;28;20941;-79
2022/01/13 04:17:28;;;;;;;0.50;0.10;;;4.20;1.00;;;;;;5080034;28;21144;-79
2022/01/13 04:19:58;;;;;;;0.50;0.10;;;4.20;1.00;;;;;;5080394;28;20549;-78
2022/01/13 04:22:26;;;;;;;0.50;0.10;;;4.20;1.00;;;;;;5079190;28;20815;-81
2022/01/13 04:24:54;;;;;;;0.60;0.53;;;4.20;1.00;;;;;;5078734;28;20475;-81
2022/01/13 04:27:24;;;;;;;0.50;0.10;;;4.20;1.00;;;;;;5079496;28;20450;-81
2022/01/13 04:30:11;;;;;;;0.50;0.10;;;4.20;1.00;;;;;;5077568;28;20454;-80
2022/01/13 04:32:40;;;;;;;1.60;1.50;;;4.20;1.00;;;;;;5062267;28;20536;-80
2022/01/13 04:35:12;;;;;;;0.50;0.10;;;4.10;1.00;;;;;;5079158;28;20489;-79
2022/01/13 04:37:40;;;;;;;0.50;0.10;;;;;;;;;;5052058;28;20986;-80
2022/01/13 04:40:09;;;;;;;0.50;0.10;;;4.10;1.00;;;;;;5067664;28;20449;-81
2022/01/13 04:42:41;;;;;;;0.50;0.10;;;4.10;1.00;;;;;;5067075;28;20546;-80
2022/01/13 04:45:10;;;;;;;0.50;0.10;;;4.10;1.00;;;;;;5088863;28;20556;-81
2022/01/13 04:47:38;;;;;;;0.50;0.10;;;4.10;1.00;;;;;;5076342;28;20449;-80
2022/01/13 04:50:07;;;;;;;0.50;0.10;;;4.10;1.00;;;;;;5071731;28;20527;-81
2022/01/13 04:52:36;;;;;;;0.50;0.10;;;4.10;1.00;;;;;;5073642;28;20437;-81
2022/01/13 04:55:10;;;;;;;0.50;0.10;;;4.20;1.00;;;;;;5072715;28;20537;-80
2022/01/13 04:57:38;;;;;;;0.50;0.10;;;4.30;1.00;;;;;;5074251;28;21068;-81
2022/01/13 05:00:10;;;;;;;0.50;0.10;;;4.30;1.00;;;;;;5073334;28;20439;-81
2022/01/13 05:02:38;;;;;;;0.50;0.10;;;4.30;1.00;;;;;;5074835;28;20432;-81
2022/01/13 05:05:08;;;;;;;0.50;0.10;;;4.40;1.00;;;;;;5055080;28;20458;-82
2022/01/13 05:07:37;;;;;;;0.50;0.10;;;4.40;1.00;;;;;;5056169;28;20464;-82
2022/01/13 05:10:06;;;;;;;0.50;0.10;;;4.40;1.00;;;;;;5057759;28;20464;-81
2022/01/13 05:12:38;;;;;;;1.23;0.87;;;4.50;1.00;;;;;;5057741;28;20495;-82
2022/01/13 05:15:08;;;;;;;0.50;0.10;;;4.50;1.00;;;;;;5054014;28;20474;-81
2022/01/13 05:20:38;;;;;;;0.50;0.10;;;4.40;1.00;;;;;;5056527;28;20459;-79
2022/01/13 05:23:11;;;;;;;0.50;0.10;;;4.40;1.00;;;;;;5069196;28;20458;-80
2022/01/13 05:25:39;;;;;;;0.50;0.10;;;4.50;1.00;;;;;;5072805;28;20439;-79
2022/01/13 05:28:07;;;;;;;0.50;0.10;;;4.50;1.00;;;;;;5077948;28;20436;-81
2022/01/13 05:30:36;;;;;;;0.90;0.67;;;4.50;1.00;;;;;;5068135;28;20566;-78
2022/01/13 05:33:04;;;;;;;0.50;0.20;;;4.50;1.00;;;;;;5074008;28;21011;-80
2022/01/13 05:35:34;;;;;;;1.73;1.63;;;;;;;;;;5069362;28;20461;-80
2022/01/13 05:38:05;;;;;;;0.50;0.10;;;4.40;1.00;;;;;;5070116;28;20531;-82
2022/01/13 05:40:35;;;;;;;0.50;0.20;;;4.40;1.00;;;;;;5068967;28;20460;-81
2022/01/13 05:43:04;;;;;;;0.50;0.20;;;4.20;1.00;;;;;;5061541;28;20441;-81
2022/01/13 05:45:38;;;;;;;0.50;0.10;;;4.20;1.00;;;;;;5060300;28;20437;-79
2022/01/13 05:48:06;;;;;;;0.50;0.10;;;4.10;1.00;;;;;;5058614;28;20872;-80
2022/01/13 05:50:34;;;;;;;0.50;0.10;;;4.10;1.00;;;;;;5059373;28;20532;-79
2022/01/13 05:53:04;;;;;;;0.50;0.10;;;4.10;1.00;;;;;;5052781;28;20443;-79
2022/01/13 05:55:32;;;;;;;0.50;0.10;;;4.10;1.00;;;;;;5057693;28;20464;-80
2022/01/13 05:58:01;;;;;;;0.73;0.73;;;4.10;1.00;;;;;;5058915;28;20519;-80
2022/01/13 06:00:29;;;;;;;0.50;0.20;;;4.10;1.00;;;;;;5059876;28;20950;-80
2022/01/13 06:02:58;;;;;;;0.50;0.20;;;;;;;;;;5059188;28;20435;-80
2022/01/13 06:05:26;;;;;;;0.63;0.50;;;3.90;1.00;;;;;;5058358;28;20439;-81
2022/01/13 06:07:54;;;;;;;0.60;0.40;;;3.90;1.00;;;;;;5058889;28;20491;-79
2022/01/13 06:10:22;;;;;;;1.57;1.43;;;3.80;1.00;;;;;;5060544;28;20433;-80
2022/01/13 06:12:52;;;;;;;6.00;2.47;;;3.70;1.00;;;;;;5062329;28;20456;-80
2022/01/13 06:15:24;;;;;;;8.03;7.63;;;3.60;1.00;;;;;;5082516;28;20462;-80
2022/01/13 06:17:54;;;;;;;1.83;0.70;;;3.60;1.00;;;;;;5050625;28;20574;-80
2022/01/13 06:20:23;;;;;;;0.50;0.10;;;3.50;1.00;;;;;;5041206;28;20486;-81
2022/01/13 06:22:52;;;;;;;6.10;5.80;;;3.60;1.00;;;;;;5051489;28;20515;-82
2022/01/13 06:25:20;;;;;;;0.50;0.20;;;3.60;1.00;;;;;;5063442;28;20457;-80
2022/01/13 06:27:49;;;;;;;1.30;1.20;;;;;;;;;;5059509;28;20923;-82
2022/01/13 06:30:38;;;;;;;0.60;0.33;;;3.50;1.00;;;;;;5064122;28;20449;-81
2022/01/13 06:33:06;;;;;;;0.50;0.10;;;3.40;1.00;;;;;;5065575;28;20550;-80
2022/01/13 06:35:35;;;;;;;0.60;0.60;;;3.40;1.00;;;;;;5059879;28;20838;-78
2022/01/13 06:38:03;;;;;;;0.50;0.10;;;3.40;1.00;;;;;;5060261;28;20474;-79
2022/01/13 06:40:31;;;;;;;0.50;0.10;;;3.40;1.00;;;;;;5059355;28;20446;-80
2022/01/13 06:43:00;;;;;;;0.50;0.10;;;;;;;;;;5073808;28;20463;-80
2022/01/13 06:45:28;;;;;;;1.87;1.60;;;3.50;1.00;;;;;;5074482;28;20423;-80
2022/01/13 06:47:57;;;;;;;0.50;0.10;;;3.90;1.00;;;;;;5058429;28;20538;-78
2022/01/13 06:50:25;;;;;;;0.50;0.10;;;3.60;1.00;;;;;;5055358;28;20551;-78
2022/01/13 06:52:53;;;;;;;0.50;0.10;;;3.70;1.00;;;;;;5063305;28;20498;-80
2022/01/13 06:55:21;;;;;;;0.50;0.10;;;3.60;1.00;;;;;;5057911;28;20452;-78
2022/01/13 06:57:49;;;;;;;0.50;0.10;;;3.70;1.00;;;;;;5053016;28;20488;-79
2022/01/13 07:00:17;;;;;;;0.50;0.20;;;3.70;1.00;;;;;;5049420;28;20455;-80
2022/01/13 07:02:45;;;;;;;0.50;0.10;;;3.80;1.00;;;;;;5068208;28;20516;-78
2022/01/13 07:05:15;;;;;;;0.60;0.37;;;3.80;1.00;;;;;;5079223;28;20561;-79
2022/01/13 07:07:43;;;;;;;0.50;0.10;;;3.80;1.00;;;;;;5081207;28;20530;-79
2022/01/13 07:10:12;;;;;;;0.50;0.10;;;3.90;1.00;;;;;;5087979;28;20518;-80
2022/01/13 07:12:41;;;;;;;0.50;0.10;;;3.90;1.00;;;;;;5087659;28;20452;-80
2022/01/13 07:15:11;;;;;;;0.50;0.20;;;3.90;1.00;;;;;;5072450;28;20471;-80
2022/01/13 07:17:40;;;;;;;0.50;0.10;;;3.90;1.00;;;;;;5071928;28;20544;-79
2022/01/13 07:20:09;;;;;;;0.60;0.40;;;4.00;1.00;;;;;;5076987;28;20493;-77
2022/01/13 07:22:40;;;;;;;0.50;0.17;;;3.90;1.00;;;;;;5066990;28;20599;-79
2022/01/13 07:25:10;;;;;;;1.37;1.27;;;4.00;1.00;;;;;;5055212;28;21028;-80
2022/01/13 07:27:40;;;;;;;0.50;0.10;;;3.90;1.00;;;;;;5057277;28;20455;-80
2022/01/13 07:30:09;;;;;;;0.50;0.10;;;4.00;1.00;;;;;;5060657;28;20514;-80
2022/01/13 07:32:38;;;;;;;0.50;0.10;;;4.00;1.00;;;;;;5073003;28;20676;-82
2022/01/13 07:35:07;;;;;;;0.50;0.20;;;3.90;1.00;;;;;;5076353;28;20512;-78
2022/01/13 07:37:35;;;;;;;0.50;0.10;;;4.00;1.00;;;;;;5052022;28;20479;-79
2022/01/13 07:40:13;;;;;;;1.80;1.70;;;4.00;1.00;;;;;;5073268;28;20433;-81
2022/01/13 07:42:43;;;;;;;4.63;4.03;;;;;;;;;;5069944;28;20478;-80
2022/01/13 07:45:15;;;;;;;1.17;1.07;;;;;;;;;;5047025;28;20479;-80
2022/01/13 07:47:43;;;;;;;0.50;0.10;;;3.80;1.00;;;;;;5059335;28;20462;-78
2022/01/13 07:50:13;;;;;;;0.50;0.10;;;3.80;1.00;;;;;;5061597;28;20440;-80
2022/01/13 07:52:42;;;;;;;0.70;0.60;;;3.70;1.00;;;;;;5053542;28;20460;-79
2022/01/13 07:55:12;;;;;;;0.50;0.10;;;3.80;1.00;;;;;;5048483;28;20493;-77
2022/01/13 07:57:40;;;;;;;0.50;0.20;;;3.80;1.00;;;;;;5063835;28;20495;-79
2022/01/13 08:00:11;;;;;;;0.70;0.63;;;3.80;1.00;;;;;;5068187;28;20446;-80
2022/01/13 08:02:40;;;;;;;3.53;2.83;;;;;;;;;;5064512;28;20450;-79
2022/01/13 08:05:09;;;;;;;0.50;0.10;;;3.50;1.00;;;;;;5063913;28;20505;-77
2022/01/13 08:07:37;;;;;;;0.87;0.87;;;3.40;1.00;;;;;;5066919;28;20526;-80
2022/01/13 08:10:06;;;;;;;4.20;2.73;;;3.20;1.00;;;;;;5066432;28;20474;-80
2022/01/13 08:12:35;;;;;;;1.70;1.27;;;3.10;1.00;;;;;;5063134;28;20442;-80
2022/01/13 08:15:04;;;;;;;1.23;1.13;;;3.00;1.00;;;;;;5063165;28;20471;-79
2022/01/13 08:20:17;;;;;;;2.00;1.80;;;3.00;1.00;;;;;;5059834;28;20423;-80
2022/01/13 08:22:45;;;;;;;0.77;0.77;;;3.00;1.00;;;;;;5059686;28;20447;-79
2022/01/13 08:25:15;;;;;;;0.50;0.10;;;3.00;1.00;;;;;;5057889;28;20481;-80
2022/01/13 08:27:44;;;;;;;0.50;0.20;;;3.10;1.00;;;;;;5057229;28;20456;-79
2022/01/13 08:30:13;;;;;;;1.93;0.60;;;3.20;1.00;;;;;;5057850;28;20456;-79
2022/01/13 08:32:41;;;;;;;5.10;3.93;;;3.20;1.00;;;;;;5068020;28;20446;-79
2022/01/13 08:35:11;;;;;;;0.70;0.63;;;3.10;1.00;;;;;;5077467;28;20458;-80
2022/01/13 08:37:39;;;;;;;2.07;1.97;;;3.10;1.00;;;;;;5076845;28;21000;-80
2022/01/13 08:40:15;;;;;;;3.80;2.03;;;3.10;1.00;;;;;;5084686;28;20442;-78
2022/01/13 08:42:46;;;;;;;0.50;0.20;;;;;;;;;;5086815;28;20454;-80
2022/01/13 08:45:15;;;;;;;0.50;0.10;;;;;;;;;;5083697;28;20956;-79
2022/01/13 08:47:44;;;;;;;1.33;0.73;;;3.20;1.00;;;;;;5079467;28;20960;-78
2022/01/13 08:50:13;;;;;;;0.50;0.20;;;3.20;1.00;;;;;;5076246;28;20446;-79
2022/01/13 08:52:44;;;;;;;1.23;1.07;;;3.20;1.00;;;;;;5058967;28;20457;-79
2022/01/13 08:55:12;;;;;;;2.70;1.50;;;3.20;1.00;;;;;;5052639;28;20486;-79
2022/01/13 08:57:40;;;;;;;0.50;0.20;;;3.20;1.00;;;;;;5056252;28;20914;-78
2022/01/13 09:00:11;;;;;;;11.30;10.80;;;3.20;1.00;;;;;;5057877;28;20478;-80
2022/01/13 09:02:41;;;;;;;0.50;0.10;;;3.20;1.00;;;;;;5064469;28;20544;-78
2022/01/13 09:05:11;;;;;;;0.60;0.60;;;3.30;1.00;;;;;;5057769;28;20482;-79
2022/01/13 09:07:39;;;;;;;0.60;0.30;;;3.40;1.00;;;;;;5056453;28;20958;-79
2022/01/13 09:10:08;;;;;;;0.50;0.20;;;3.40;1.00;;;;;;5061916;28;20480;-80
2022/01/13 09:12:36;;;;;;;0.50;0.10;;;3.40;1.00;;;;;;5065163;28;20452;-80
2022/01/13 09:15:16;;;;;;;0.50;0.30;;;3.40;1.00;;;;;;5061527;28;20564;-79
2022/01/13 09:17:51;;;;;;;3.40;2.67;;;3.40;1.00;;;;;;5056647;28;20468;-78
2022/01/13 09:20:19;;;;;;;1.03;0.93;;;3.40;1.00;;;;;;5055268;28;20547;-80
2022/01/13 09:22:48;;;;;;;0.50;0.10;;;3.40;1.00;;;;;;5054937;28;20547;-79
2022/01/13 09:25:19;;;;;;;0.50;0.10;;;3.50;1.00;;;;;;5062619;28;20553;-79
2022/01/13 09:27:47;;;;;;;0.50;0.10;;;3.50;1.00;;;;;;5074631;28;20442;-78
2022/01/13 09:30:16;;;;;;;0.50;0.10;;;3.60;1.00;;;;;;5087095;28;20449;-78
2022/01/13 09:32:46;;;;;;;4.00;3.80;;;3.70;1.00;;;;;;5077419;28;20491;-76
2022/01/13 09:35:14;;;;;;;0.50;0.10;;;3.70;1.00;;;;;;5068815;28;20483;-77
2022/01/13 09:37:42;;;;;;;0.50;0.10;;;3.80;1.00;;;;;;5073757;28;20492;-79
2022/01/13 09:40:13;;;;;;;0.50;0.10;;;3.90;1.00;;;;;;5074761;28;20577;-78
2022/01/13 09:43:05;;;;;;;0.50;0.10;;;4.00;1.00;;;;;;5075407;28;20517;-80
2022/01/13 09:45:39;;;;;;;2.63;1.20;;;4.00;1.00;;;;;;5070023;28;20514;-80
2022/01/13 09:48:09;;;;;;;0.50;0.10;;;;;;;;;;5054747;28;20454;-78
2022/01/13 09:50:39;;;;;;;7.17;3.43;;;4.00;1.00;;;;;;5068494;28;20943;-80
2022/01/13 09:53:08;;;;;;;0.50;0.20;;;3.90;1.00;;;;;;5068282;28;20464;-78
2022/01/13 09:55:36;;;;;;;0.50;0.10;;;3.90;1.00;;;;;;5066547;28;21054;-80
2022/01/13 09:58:10;;;;;;;0.60;0.60;;;4.00;1.00;;;;;;5064418;28;20449;-84
2022/01/13 10:00:43;;;;;;;0.50;0.10;;;4.00;1.00;;;;;;5061366;28;20473;-79
2022/01/13 10:03:13;;;;;;;1.67;1.00;;;4.00;1.00;;;;;;5061680;28;21041;-78
2022/01/13 10:05:49;;;;;;;0.50;0.10;;;4.10;1.00;;;;;;5064539;28;20884;-79
2022/01/13 10:08:17;;;;;;;0.50;0.10;;;4.10;1.00;;;;;;5071715;28;20414;-81
2022/01/13 10:10:45;;;;;;;0.50;0.10;;;;;;;;;;5076992;28;20438;-77
2022/01/13 10:13:22;;;;;;;0.50;0.10;;;4.10;1.00;;;;;;5081962;28;20453;-79
2022/01/13 10:18:40;;;;;;;0.50;0.10;;;4.20;1.00;;;;;;5057595;28;20451;-79
2022/01/13 10:21:09;;;;;;;1.33;1.33;;;4.30;1.00;;;;;;5059402;28;20462;-80
2022/01/13 10:23:37;;;;;;;0.50;0.10;;;4.30;1.00;;;;;;5058489;28;20465;-78
2022/01/13 10:26:10;;;;;;;0.50;0.10;;;4.40;1.00;;;;;;5071292;28;20524;-78
2022/01/13 10:28:39;;;;;;;0.70;0.53;;;4.50;1.00;;;;;;5058956;28;20521;-81
2022/01/13 10:31:07;;;;;;;0.50;0.20;;;4.50;1.00;;;;;;5048447;28;20532;-80
2022/01/13 10:33:36;;;;;;;0.67;0.50;;;4.50;1.00;;;;;;5048433;28;20468;-80
2022/01/13 10:36:10;;;;;;;0.50;0.10;;;4.50;1.00;;;;;;5055954;28;20473;-81
2022/01/13 10:38:52;;;;;;;0.50;0.10;;;4.60;1.00;;;;;;5067476;28;20461;-80
2022/01/13 10:41:30;;;;;;;1.13;1.03;;;4.60;1.00;;;;;;5060709;28;20451;-81
2022/01/13 10:44:18;;;;;;;0.50;0.10;;;4.60;1.00;;;;;;5061696;28;20483;-82
2022/01/13 10:47:00;;;;;;;0.60;0.10;;;4.50;1.00;;;;;;5067887;28;20485;-80
2022/01/13 10:49:33;;;;;;;0.50;0.10;;;4.50;1.00;;;;;;5074292;28;20463;-80
2022/01/13 10:52:23;;;;;;;0.50;0.10;;;4.60;1.00;;;;;;5054210;28;20457;-80
2022/01/13 10:54:54;;;;;;;0.50;0.10;;;4.60;1.00;;;;;;5059471;28;20474;-81
2022/01/13 10:57:24;;;;;;;0.50;0.10;;;4.60;1.00;;;;;;5070891;28;20454;-82
2022/01/13 10:59:53;;;;;;;0.50;0.10;;;4.30;1.00;;;;;;5057745;28;20483;-80
2022/01/13 11:02:22;;;;;;;0.50;0.10;;;4.60;1.00;;;;;;5060893;28;20537;-79
2022/01/13 11:04:51;;;;;;;1.80;1.70;;;4.50;1.00;;;;;;5059725;28;20493;-81
2022/01/13 11:07:24;;;;;;;6.33;3.37;;;4.50;1.00;;;;;;5072442;28;20867;-82
2022/01/13 11:09:58;;;;;;;0.50;0.10;;;4.50;1.00;;;;;;5062148;28;20524;-80
2022/01/13 11:12:31;;;;;;;0.50;0.10;;;4.50;1.00;;;;;;5059138;28;20443;-81
2022/01/13 11:15:03;;;;;;;0.50;0.10;;;4.50;1.00;;;;;;5066930;28;20811;-80
2022/01/13 11:17:33;;;;;;;0.50;0.20;;;4.50;1.00;;;;;;5080244;28;20455;-80
2022/01/13 11:20:01;;;;;;;0.50;0.10;;;4.50;1.00;;;;;;5083010;28;20547;-80
2022/01/13 11:22:34;;;;;;;0.50;0.10;;;4.60;1.00;;;;;;5082003;28;20457;-80
2022/01/13 11:25:03;;;;;;;0.50;0.10;;;4.60;1.00;;;;;;5074697;28;20532;-82
2022/01/13 11:27:31;;;;;;;0.50;0.10;;;4.70;1.00;;;;;;5061665;28;20468;-80
2022/01/13 11:30:00;;;;;;;0.50;0.10;;;4.70;1.00;;;;;;5060125;28;20449;-81
2022/01/13 11:32:28;;;;;;;0.50;0.10;;;4.70;1.00;;;;;;5064961;28;20483;-81
2022/01/13 11:34:59;;;;;;;0.50;0.10;;;4.70;1.00;;;;;;5060511;28;20557;-82
2022/01/13 11:37:28;;;;;;;0.50;0.10;;;4.70;1.00;;;;;;5060466;28;20436;-81
2022/01/13 11:39:58;;;;;;;0.50;0.10;;;4.70;1.00;;;;;;5058342;28;20486;-80
2022/01/13 11:42:47;;;;;;;0.50;0.10;;;4.70;1.00;;;;;;5067877;28;20502;-81
2022/01/13 11:45:17;;;;;;;0.50;0.10;;;4.70;1.00;;;;;;5058917;28;20483;-81
2022/01/13 11:47:46;;;;;;;0.50;0.10;;;;;;;;;;5058894;28;20452;-78
2022/01/13 11:50:19;;;;;;;0.50;0.10;;;4.70;1.00;;;;;;5060264;28;20884;-79
2022/01/13 11:52:52;;;;;;;0.50;0.10;;;4.70;1.00;;;;;;5059428;28;20444;-82
2022/01/13 11:55:23;;;;;;;0.50;0.10;;;4.70;1.00;;;;;;5059190;28;20479;-81
2022/01/13 11:58:13;;;;;;;0.50;0.10;;;4.70;1.00;;;;;;5042817;28;20426;-80
2022/01/13 12:00:42;;;;;;;0.50;0.10;;;4.70;1.00;;;;;;5061125;28;20492;-80
2022/01/13 12:03:24;;;;;;;0.50;0.10;;;6.70;1.00;;;;;;5070090;28;20471;-79
2022/01/13 12:05:52;;;;;;;0.50;0.10;;;;;;;;;;5065821;28;20872;-79
2022/01/13 12:08:42;;;;;;;0.50;0.10;;;4.70;1.00;;;;;;5063949;28;20861;-82
2022/01/13 12:11:27;;;;;;;0.50;0.10;;;4.70;1.00;;;;;;5064905;28;20411;-82
2022/01/13 12:13:58;;;;;;;0.50;0.10;;;;;;;;;;5056058;28;20521;-82
2022/01/13 12:16:51;;;;;;;0.50;0.10;;;4.60;1.00;;;;;;5059993;28;21089;-81
2022/01/13 12:19:29;;;;;;;0.50;0.10;;;4.50;1.00;;;;;;5059657;28;20527;-80
2022/01/13 12:22:05;;;;;;;0.50;0.10;;;4.50;1.00;;;;;;5058549;28;20418;-80
2022/01/13 12:24:54;;;;;;;0.50;0.10;;;4.60;1.00;;;;;;5059430;28;20520;-79
2022/01/13 12:27:25;;;;;;;0.50;0.10;;;4.60;1.00;;;;;;5059319;28;20482;-80
2022/01/13 12:30:08;;;;;;;0.50;0.10;;;4.60;1.00;;;;;;5058893;28;20453;-81
2022/01/13 12:32:40;;;;;;;0.50;0.10;;;4.60;1.00;;;;;;5064269;28;20541;-81
2022/01/13 12:35:11;;;;;;;0.50;0.10;;;4.70;1.00;;;;;;5072762;28;20502;-80
2022/01/13 12:37:40;;;;;;;1.27;1.17;;;4.70;1.00;;;;;;5067121;28;20527;-82
2022/01/13 12:40:15;;;;;;;0.50;0.10;;;4.70;1.00;;;;;;5059858;28;20692;-80
2022/01/13 12:42:52;;;;;;;3.77;3.47;;;4.70;1.00;;;;;;5060030;28;20501;-78
2022/01/13 12:45:34;;;;;;;0.50;0.20;;;4.80;1.00;;;;;;5077467;28;20504;-82
2022/01/13 12:48:08;;;;;;;0.50;0.10;;;4.90;1.00;;;;;;5082973;28;20812;-79
2022/01/13 12:50:39;;;;;;;1.80;1.70;;;4.90;1.00;;;;;;5081222;28;20439;-81
2022/01/13 12:53:11;;;;;;;0.50;0.10;;;4.90;1.00;;;;;;5080198;28;20452;-81
2022/01/13 12:55:41;;;;;;;0.50;0.10;;;4.90;1.00;;;;;;5061507;28;20441;-83
2022/01/13 12:58:12;;;;;;;0.50;0.20;;;4.90;1.00;;;;;;5041123;28;20476;-81
2022/01/13 13:00:58;;;;;;;0.50;0.10;;;4.90;1.00;;;;;;5043968;28;20508;-81
2022/01/13 13:03:28;;;;;;;0.50;0.10;;;4.90;1.00;;;;;;5059974;28;20502;-82
2022/01/13 13:05:57;;;;;;;0.50;0.10;;;5.00;1.00;;;;;;5075576;28;20448;-81
2022/01/13 13:08:27;;;;;;;0.50;0.10;;;4.90;1.00;;;;;;5073357;28;20459;-82
2022/01/13 13:11:00;;;;;;;0.50;0.10;;;4.90;1.00;;;;;;5073968;28;20508;-82
2022/01/13 13:13:33;;;;;;;0.50;0.10;;;4.90;1.00;;;;;;5071459;28;20466;-81
2022/01/13 13:16:04;;;;;;;0.50;0.10;;;4.80;1.00;;;;;;5065214;28;20513;-81
2022/01/13 13:18:33;;;;;;;0.50;0.33;;;4.80;1.00;;;;;;5061386;28;20797;-79
2022/01/13 13:21:02;;;;;;;0.50;0.10;;;4.60;1.00;;;;;;5061026;28;20483;-83
2022/01/13 13:23:34;;;;;;;1.60;1.40;;;4.70;1.00;;;;;;5061263;28;20465;-81
2022/01/13 13:26:06;;;;;;;0.50;0.10;;;4.60;1.00;;;;;;5060480;28;20458;-81
2022/01/13 13:28:39;;;;;;;1.30;1.23;;;4.50;1.00;;;;;;5059251;28;20489;-79
2022/01/13 13:31:11;;;;;;;0.50;0.20;;;4.30;1.00;;;;;;5061638;28;20532;-81
2022/01/13 13:33:49;;;;;;;0.50;0.20;;;4.20;1.00;;;;;;5060366;28;20502;-82
2022/01/13 13:36:20;;;;;;;0.50;0.10;;;4.20;1.00;;;;;;5061923;28;20449;-80
2022/01/13 13:38:50;;;;;;;0.70;0.20;;;4.20;1.00;;;;;;5063527;28;20450;-80
2022/01/13 13:41:19;;;;;;;0.50;0.20;;;4.20;1.00;;;;;;5068443;28;20551;-84
2022/01/13 13:44:10;;;;;;;0.50;0.10;;;4.20;1.00;;;;;;5049290;28;20479;-81
2022/01/13 13:46:44;;;;;;;0.50;0.20;;;4.10;1.00;;;;;;5060416;28;20968;-80
2022/01/13 13:49:13;;;;;;;0.50;0.10;;;4.20;1.00;;;;;;5063420;28;20545;-80